Time;durP1;ratioP1;P1;durP2;ratioP2;P2;SDS_P1;SDS_P2;PMS_P1;PMS_P2;Temp;Humidity;BMP_temperature;BMP_pressure;BME280_temperature;BME280_humidity;BME280_pressure;Samples;Min_cycle;Max_cycle;Signal;HPM_P1;HPM_P2
2023/10/09 00:01:26;;;;;;;17.25;7.70;;;;;;;;;;5081764;28;20295;-73
2023/10/09 00:03:55;;;;;;;14.00;8.48;;;;;;;;;;5083997;28;20748;-74
2023/10/09 00:06:36;;;;;;;17.05;8.07;;;;;;;;;;5085419;28;20195;-74
2023/10/09 00:09:16;;;;;;;16.23;8.13;;;;;;;;;;5087128;28;20226;-74
2023/10/09 00:11:44;;;;;;;13.77;8.65;;;;;;;;;;5055764;28;20573;-74
2023/10/09 00:14:12;;;;;;;17.38;8.63;;;;;;;;;;5080450;28;20230;-74
2023/10/09 00:16:47;;;;;;;14.73;8.32;;;;;;;;;;5094820;28;20196;-74
2023/10/09 00:19:30;;;;;;;16.45;7.95;;;;;;;;;;5084978;28;20181;-74
2023/10/09 00:21:55;;;;;;;21.63;9.30;;;;;;;;;;5045589;28;20191;-74
2023/10/09 00:24:23;;;;;;;21.00;9.82;;;;;;;;;;5073171;28;20655;-74
2023/10/09 00:26:51;;;;;;;18.50;9.13;;;;;;;;;;5104344;28;20658;-74
2023/10/09 00:29:22;;;;;;;24.48;10.63;;;;;;;;;;5067433;28;20180;-74
2023/10/09 00:32:13;;;;;;;20.83;10.18;;;;;;;;;;5099808;28;20729;-74
2023/10/09 00:34:39;;;;;;;18.55;10.23;;;;;;;;;;5096491;28;20301;-74
2023/10/09 00:37:16;;;;;;;17.17;9.38;;;;;;;;;;5089777;28;20180;-74
2023/10/09 00:39:47;;;;;;;23.20;11.35;;;;;;;;;;5083659;28;20188;-74
2023/10/09 00:42:14;;;;;;;21.85;10.55;;;;;;;;;;5100202;28;20188;-73
2023/10/09 00:44:41;;;;;;;24.70;10.98;;;;;;;;;;5088068;28;20191;-74
2023/10/09 00:47:26;;;;;;;25.98;10.93;;;;;;;;;;5099915;28;20195;-74
2023/10/09 00:50:08;;;;;;;22.70;12.13;;;;;;;;;;5096836;28;20184;-74
2023/10/09 00:52:49;;;;;;;21.88;10.63;;;;;;;;;;5059707;28;20212;-74
2023/10/09 00:55:44;;;;;;;24.77;11.60;;;;;;;;;;5089419;28;20191;-74
2023/10/09 00:58:12;;;;;;;26.85;13.00;;;;;;;;;;5100278;28;20388;-74
2023/10/09 01:05:59;;;;;;;25.88;13.40;;;;;;;;;;5104714;28;20183;-74
2023/10/09 01:08:43;;;;;;;22.17;12.50;;;;;;;;;;5080792;28;20195;-74
2023/10/09 01:11:21;;;;;;;21.30;12.23;;;;;;;;;;5090423;28;20213;-74
2023/10/09 01:16:17;;;;;;;28.35;15.18;;;;;;;;;;5093406;28;20183;-75
2023/10/09 01:18:44;;;;;;;33.03;15.82;;;;;;;;;;5090343;28;20249;-74
2023/10/09 01:21:14;;;;;;;30.58;15.10;;;;;;;;;;5077883;28;20195;-74
2023/10/09 01:26:32;;;;;;;35.45;16.80;;;;;;;;;;5090041;28;20240;-74
2023/10/09 01:28:59;;;;;;;30.45;16.73;;;;;;;;;;5107861;28;20187;-74
2023/10/09 01:31:43;;;;;;;31.50;16.83;;;;;;;;;;5098679;28;20478;-74
2023/10/09 01:34:09;;;;;;;31.10;15.85;;;;;;;;;;5064973;28;20237;-74
2023/10/09 01:36:39;;;;;;;32.45;15.48;;;;;;;;;;5097294;28;20240;-74
2023/10/09 01:39:23;;;;;;;34.45;18.15;;;;;;;;;;5091055;28;20188;-74
2023/10/09 01:41:57;;;;;;;33.30;18.42;;;;;;;;;;5084469;28;20237;-74
2023/10/09 01:44:25;;;;;;;36.13;18.80;;;;;;;;;;5091231;28;20188;-74
2023/10/09 01:46:52;;;;;;;39.72;19.92;;;;;;;;;;5093548;28;20203;-74
2023/10/09 01:49:21;;;;;;;40.03;21.02;;;;;;;;;;5099345;28;20196;-74
2023/10/09 01:51:48;;;;;;;39.92;20.70;;;;;;;;;;5081470;28;20210;-74
2023/10/09 01:54:33;;;;;;;40.55;22.02;;;;;;;;;;5086141;28;20192;-74
2023/10/09 01:57:05;;;;;;;45.47;22.60;;;;;;;;;;5068896;28;20244;-74
2023/10/09 01:59:31;;;;;;;43.50;22.48;;;;;;;;;;5086852;28;20538;-74
2023/10/09 02:01:58;;;;;;;41.92;21.88;;;;;;;;;;5068305;28;20279;-74
2023/10/09 02:04:23;;;;;;;47.97;23.52;;;;;;;;;;5086522;28;20227;-74
2023/10/09 02:06:52;;;;;;;45.40;23.02;;;;;;;;;;5070480;28;20519;-74
2023/10/09 02:09:31;;;;;;;43.95;22.77;;;;;;;;;;5088439;28;20191;-74
2023/10/09 02:11:57;;;;;;;43.92;21.88;;;;;;;;;;5086423;28;20650;-74
2023/10/09 02:14:24;;;;;;;46.60;24.65;;;;;;;;;;5066887;28;20301;-74
2023/10/09 02:17:09;;;;;;;54.80;24.90;;;;;;;;;;5070522;28;20184;-73
2023/10/09 02:19:35;;;;;;;45.83;23.95;;;;;;;;;;5086180;28;20180;-73
2023/10/09 02:22:12;;;;;;;49.92;26.08;;;;;;;;;;5081012;28;20185;-74
2023/10/09 02:27:19;;;;;;;51.28;26.85;;;;;;;;;;5077645;28;20632;-73
2023/10/09 02:29:47;;;;;;;43.65;23.42;;;;;;;;;;5051994;28;20180;-72
2023/10/09 02:32:14;;;;;;;50.17;24.63;;;;;;;;;;5101750;28;20215;-71
2023/10/09 02:34:40;;;;;;;44.90;24.15;;;;;;;;;;5091827;28;20278;-72
2023/10/09 02:37:06;;;;;;;50.60;25.35;;;;;;;;;;5088525;28;20669;-72
2023/10/09 02:39:43;;;;;;;53.50;27.10;;;;;;;;;;5090770;28;20219;-73
2023/10/09 02:44:39;;;;;;;48.45;26.40;;;;;;;;;;5098813;28;20289;-73
2023/10/09 02:47:11;;;;;;;52.30;26.67;;;;;;;;;;5078646;28;20185;-73
2023/10/09 02:49:39;;;;;;;47.17;25.58;;;;;;;;;;5094193;28;20245;-73
2023/10/09 02:52:07;;;;;;;46.28;24.63;;;;;;;;;;5103416;28;20688;-73
2023/10/09 02:54:35;;;;;;;53.58;26.70;;;;;;;;;;5079588;28;20195;-73
2023/10/09 02:57:16;;;;;;;54.13;26.67;;;;;;;;;;5093097;28;20204;-73
2023/10/09 02:59:41;;;;;;;49.08;25.92;;;;;;;;;;5094462;28;20188;-72
2023/10/09 03:02:07;;;;;;;49.78;27.40;;;;;;;;;;5093467;28;20705;-73
2023/10/09 03:04:33;;;;;;;50.15;26.45;;;;;;;;;;5072474;28;20236;-73
2023/10/09 03:06:59;;;;;;;51.70;26.38;;;;;;;;;;5091112;28;20271;-73
2023/10/09 03:09:28;;;;;;;52.47;26.08;;;;;;;;;;5057038;28;20584;-73
2023/10/09 03:12:01;;;;;;;45.25;25.52;;;;;;;;;;5072342;28;20206;-73
2023/10/09 03:14:35;;;;;;;45.72;24.85;;;;;;;;;;5073039;28;20188;-73
2023/10/09 03:17:01;;;;;;;49.97;25.70;;;;;;;;;;5088631;28;20504;-73
2023/10/09 03:19:37;;;;;;;50.67;25.52;;;;;;;;;;5072426;28;20700;-73
2023/10/09 03:22:09;;;;;;;54.67;26.70;;;;;;;;;;5089086;28;20543;-73
2023/10/09 03:24:35;;;;;;;49.97;26.45;;;;;;;;;;5082856;28;20184;-70
2023/10/09 03:27:00;;;;;;;45.28;24.10;;;;;;;;;;5091183;28;20197;-73
2023/10/09 03:29:27;;;;;;;49.28;26.08;;;;;;;;;;5069252;28;20199;-73
2023/10/09 03:31:53;;;;;;;51.17;26.13;;;;;;;;;;5075473;28;20208;-73
2023/10/09 03:34:18;;;;;;;50.80;26.80;;;;;;;;;;5093633;28;20187;-72
2023/10/09 03:36:45;;;;;;;47.22;24.48;;;;;;;;;;5103851;28;20188;-73
2023/10/09 03:41:58;;;;;;;45.50;22.67;;;;;;;;;;5088808;28;20671;-72
2023/10/09 03:44:24;;;;;;;49.05;24.88;;;;;;;;;;5091093;28;20196;-73
2023/10/09 03:46:51;;;;;;;55.17;27.52;;;;;;;;;;5072812;28;20511;-73
2023/10/09 03:49:22;;;;;;;47.58;26.42;;;;;;;;;;5090807;28;20184;-73
2023/10/09 03:51:49;;;;;;;49.45;27.17;;;;;;;;;;5101927;28;20292;-73
2023/10/09 03:54:15;;;;;;;50.55;27.17;;;;;;;;;;5060661;28;20676;-73
2023/10/09 03:56:41;;;;;;;51.22;27.52;;;;;;;;;;5090540;28;20263;-73
2023/10/09 03:59:10;;;;;;;48.83;24.20;;;;;;;;;;5103292;28;20188;-73
2023/10/09 04:01:39;;;;;;;45.28;25.10;;;;;;;;;;5071855;28;20210;-73
2023/10/09 04:04:07;;;;;;;48.85;26.13;;;;;;;;;;5093221;28;20226;-73
2023/10/09 04:06:33;;;;;;;47.17;25.83;;;;;;;;;;5079706;28;20599;-73
2023/10/09 04:08:59;;;;;;;48.08;26.75;;;;;;;;;;5077066;28;20192;-72
2023/10/09 04:11:27;;;;;;;47.55;25.30;;;;;;;;;;5096062;28;20697;-73
2023/10/09 04:13:55;;;;;;;52.90;25.98;;;;;;;;;;5068630;28;20239;-72
2023/10/09 04:18:59;;;;;;;45.05;25.60;;;;;;;;;;5081632;28;20544;-73
2023/10/09 04:21:34;;;;;;;47.42;25.50;;;;;;;;;;5082845;28;20660;-73
2023/10/09 04:24:22;;;;;;;45.80;25.58;;;;;;;;;;5053464;28;20496;-73
2023/10/09 04:26:48;;;;;;;47.97;24.77;;;;;;;;;;5084994;28;20184;-73
2023/10/09 04:29:26;;;;;;;46.42;25.75;;;;;;;;;;5076920;28;20781;-73
2023/10/09 04:31:56;;;;;;;46.97;23.83;;;;;;;;;;5086953;28;20247;-73
2023/10/09 04:34:28;;;;;;;49.88;24.67;;;;;;;;;;5089387;28;20680;-73
2023/10/09 04:39:47;;;;;;;49.17;25.27;;;;;;;;;;5084958;28;20192;-73
2023/10/09 04:42:36;;;;;;;44.80;25.42;;;;;;;;;;5083378;28;20547;-73
2023/10/09 04:47:35;;;;;;;50.65;27.60;;;;;;;;;;5083867;28;20189;-73
2023/10/09 04:50:08;;;;;;;49.17;26.15;;;;;;;;;;5089178;28;20184;-73
2023/10/09 05:03:24;;;;;;;49.95;26.20;;;;;;;;;;5096200;28;20251;-73
2023/10/09 05:05:58;;;;;;;43.85;25.98;;;;;;;;;;5070633;28;20180;-74
2023/10/09 05:16:04;;;;;;;47.30;26.45;;;;;;;;;;5084744;28;20195;-74
2023/10/09 05:18:36;;;;;;;42.83;24.67;;;;;;;;;;5090874;28;20608;-73
2023/10/09 05:21:28;;;;;;;53.13;27.05;;;;;;;;;;5073316;28;20384;-74
2023/10/09 05:24:16;;;;;;;47.88;26.20;;;;;;;;;;5078505;28;20202;-74
2023/10/09 05:32:05;;;;;;;46.90;26.10;;;;;;;;;;5067354;28;20219;-74
2023/10/09 05:34:34;;;;;;;49.20;26.65;;;;;;;;;;5068992;28;20607;-74
2023/10/09 05:42:42;;;;;;;50.92;26.23;;;;;;;;;;5086011;28;20228;-74
2023/10/09 05:47:53;;;;;;;46.78;25.92;;;;;;;;;;5086560;28;20187;-73
2023/10/09 06:11:38;;;;;;;49.38;26.05;;;;;;;;;;5075933;28;20213;-73
2023/10/09 06:16:43;;;;;;;45.83;26.58;;;;;;;;;;5087321;28;20223;-73
2023/10/09 06:24:17;;;;;;;48.17;26.48;;;;;;;;;;5073706;28;20652;-74
2023/10/09 06:35:15;;;;;;;47.13;24.90;;;;;;;;;;4711983;28;9999880;-71
2023/10/09 06:43:26;;;;;;;48.75;25.23;;;;;;;;;;5072256;28;20188;-73
2023/10/09 06:51:12;;;;;;;48.17;24.27;;;;;;;;;;5090945;28;20547;-73
2023/10/09 06:58:54;;;;;;;47.17;24.17;;;;;;;;;;5085669;28;20275;-74
2023/10/09 07:04:18;;;;;;;42.03;24.67;;;;;;;;;;5076901;28;20227;-74
2023/10/09 07:06:50;;;;;;;42.22;23.40;;;;;;;;;;5064716;28;20195;-73
2023/10/09 07:09:19;;;;;;;42.00;23.80;;;;;;;;;;5075843;28;20204;-73
2023/10/09 07:17:02;;;;;;;43.30;23.08;;;;;;;;;;5088284;28;20655;-72
2023/10/09 07:22:03;;;;;;;36.38;21.80;;;;;;;;;;5061780;28;20290;-73
2023/10/09 07:24:43;;;;;;;38.28;21.60;;;;;;;;;;5085930;28;20513;-73
2023/10/09 07:27:10;;;;;;;35.90;20.25;;;;;;;;;;5071930;28;20238;-71
2023/10/09 07:29:47;;;;;;;36.22;21.10;;;;;;;;;;5053866;28;20222;-73
2023/10/09 07:32:19;;;;;;;40.10;22.17;;;;;;;;;;5054847;28;20231;-73
2023/10/09 07:34:54;;;;;;;37.65;21.10;;;;;;;;;;5065125;28;20540;-73
2023/10/09 07:37:23;;;;;;;39.20;21.30;;;;;;;;;;5089951;28;20195;-73
2023/10/09 07:39:57;;;;;;;36.40;20.98;;;;;;;;;;5081888;28;20172;-73
2023/10/09 07:48:05;;;;;;;35.90;19.98;;;;;;;;;;5089974;28;20184;-74
2023/10/09 07:50:49;;;;;;;35.80;19.70;;;;;;;;;;5102389;28;20196;-74
2023/10/09 07:53:19;;;;;;;41.25;20.50;;;;;;;;;;5081796;28;20252;-73
2023/10/09 07:55:54;;;;;;;41.15;20.60;;;;;;;;;;5094365;28;20216;-72
2023/10/09 07:58:24;;;;;;;35.83;19.83;;;;;;;;;;5096436;28;20661;-73
2023/10/09 08:01:07;;;;;;;32.85;19.35;;;;;;;;;;5094115;28;20200;-73
2023/10/09 08:03:35;;;;;;;29.00;18.50;;;;;;;;;;5044885;28;20230;-73
2023/10/09 08:06:37;;;;;;;34.05;18.40;;;;;;;;;;5030684;28;20194;-71
2023/10/09 08:16:46;;;;;;;34.08;18.02;;;;;;;;;;5031535;28;20598;-72
2023/10/09 08:19:32;;;;;;;32.53;18.52;;;;;;;;;;5036816;28;20217;-69
2023/10/09 08:22:43;;;;;;;33.05;18.63;;;;;;;;;;5046581;28;20186;-73
2023/10/09 08:24:58;;;;;;;28.05;18.13;;;;;;;;;;5034381;28;20719;-70
2023/10/09 08:32:40;;;;;;;30.38;18.25;;;;;;;;;;5046877;28;20322;-73
2023/10/09 08:35:29;;;;;;;28.27;17.65;;;;;;;;;;5022430;28;20186;-72
2023/10/09 08:37:52;;;;;;;30.98;17.95;;;;;;;;;;5043661;28;20204;-72
2023/10/09 08:40:21;;;;;;;34.58;18.60;;;;;;;;;;5039245;28;20185;-73
2023/10/09 08:42:52;;;;;;;32.47;17.90;;;;;;;;;;5040223;28;20193;-74
2023/10/09 08:45:24;;;;;;;32.38;16.40;;;;;;;;;;5048764;28;20262;-74
2023/10/09 08:47:53;;;;;;;32.08;16.55;;;;;;;;;;5041521;28;20186;-74
2023/10/09 08:50:19;;;;;;;24.58;16.20;;;;;;;;;;5032520;28;20178;-73
2023/10/09 08:52:46;;;;;;;27.27;16.10;;;;;;;;;;5045406;28;20311;-73
2023/10/09 08:55:12;;;;;;;25.30;16.02;;;;;;;;;;5036032;28;20186;-71
2023/10/09 08:57:40;;;;;;;26.70;15.88;;;;;;;;;;5048317;28;20295;-73
2023/10/09 09:00:11;;;;;;;28.45;16.80;;;;;;;;;;5047551;28;20711;-73
2023/10/09 09:02:36;;;;;;;25.40;15.23;;;;;;;;;;5044317;28;20245;-73
2023/10/09 09:05:18;;;;;;;22.27;14.88;;;;;;;;;;5077447;28;20355;-74
2023/10/09 09:07:44;;;;;;;25.55;15.52;;;;;;;;;;5079432;28;20242;-74
2023/10/09 09:10:21;;;;;;;27.55;15.02;;;;;;;;;;5075839;28;20252;-73
2023/10/09 09:12:53;;;;;;;26.23;14.80;;;;;;;;;;5087887;28;20208;-74
2023/10/09 09:15:19;;;;;;;27.73;14.88;;;;;;;;;;5061169;28;20185;-74
2023/10/09 09:17:46;;;;;;;25.70;14.82;;;;;;;;;;5080985;28;20184;-74
2023/10/09 09:20:34;;;;;;;25.38;15.15;;;;;;;;;;5059960;28;20330;-73
2023/10/09 09:23:04;;;;;;;21.95;14.40;;;;;;;;;;5086289;28;20207;-73
2023/10/09 09:25:44;;;;;;;25.35;14.40;;;;;;;;;;5055664;28;20191;-73
2023/10/09 09:28:21;;;;;;;26.75;15.05;;;;;;;;;;5069083;28;20192;-73
2023/10/09 09:30:54;;;;;;;23.88;15.45;;;;;;;;;;5055470;28;20184;-73
2023/10/09 09:33:40;;;;;;;22.67;14.10;;;;;;;;;;5102426;28;20301;-73
2023/10/09 09:36:06;;;;;;;25.67;13.85;;;;;;;;;;5068045;28;20195;-73
2023/10/09 09:38:49;;;;;;;24.25;14.40;;;;;;;;;;5062222;28;20635;-73
2023/10/09 09:41:24;;;;;;;22.20;12.85;;;;;;;;;;5053724;28;20207;-73
2023/10/09 09:43:56;;;;;;;22.88;12.80;;;;;;;;;;5076586;28;20200;-73
2023/10/09 09:46:32;;;;;;;21.48;12.15;;;;;;;;;;5075709;28;20180;-73
2023/10/09 09:49:03;;;;;;;24.63;12.70;;;;;;;;;;5089047;28;20210;-73
2023/10/09 09:51:32;;;;;;;20.20;12.02;;;;;;;;;;5076422;28;20679;-73
2023/10/09 09:53:58;;;;;;;16.98;11.45;;;;;;;;;;5069708;28;20184;-73
2023/10/09 09:56:28;;;;;;;23.90;12.32;;;;;;;;;;5050259;28;20267;-73
2023/10/09 09:58:57;;;;;;;22.80;11.63;;;;;;;;;;5092834;28;20191;-73
2023/10/09 10:01:31;;;;;;;21.83;11.68;;;;;;;;;;5073298;28;20219;-74
2023/10/09 10:04:06;;;;;;;24.33;11.55;;;;;;;;;;5088544;28;20330;-73
2023/10/09 10:06:34;;;;;;;19.42;10.95;;;;;;;;;;5064082;28;20192;-72
2023/10/09 10:08:59;;;;;;;26.45;11.75;;;;;;;;;;5086755;28;20185;-72
2023/10/09 10:11:44;;;;;;;22.95;11.63;;;;;;;;;;5096862;28;20631;-72
2023/10/09 10:14:31;;;;;;;19.45;10.98;;;;;;;;;;5088975;28;20206;-73
2023/10/09 10:17:16;;;;;;;20.17;10.35;;;;;;;;;;5078021;28;20531;-73
2023/10/09 10:19:59;;;;;;;17.83;10.05;;;;;;;;;;5071896;28;20204;-73
2023/10/09 10:22:30;;;;;;;18.63;9.68;;;;;;;;;;5082963;28;20188;-73
2023/10/09 10:24:57;;;;;;;21.65;10.38;;;;;;;;;;5062862;28;20205;-73
2023/10/09 10:27:44;;;;;;;18.90;9.13;;;;;;;;;;5091235;28;20616;-73
2023/10/09 10:30:24;;;;;;;22.98;9.98;;;;;;;;;;5084664;28;20241;-73
2023/10/09 10:32:52;;;;;;;21.52;10.23;;;;;;;;;;5093203;28;20215;-74
2023/10/09 10:35:45;;;;;;;19.50;10.70;;;;;;;;;;5082446;28;21487;-73
2023/10/09 10:38:49;;;;;;;20.48;10.13;;;;;;;;;;5080195;28;20274;-73
2023/10/09 10:41:17;;;;;;;16.73;9.23;;;;;;;;;;5091123;28;20204;-73
2023/10/09 10:46:37;;;;;;;19.77;9.52;;;;;;;;;;5089011;28;20190;-73
2023/10/09 10:49:16;;;;;;;19.25;8.15;;;;;;;;;;5088989;28;20270;-74
2023/10/09 10:51:47;;;;;;;19.67;8.52;;;;;;;;;;5089382;28;20288;-74
2023/10/09 10:54:45;;;;;;;17.33;8.13;;;;;;;;;;5081894;28;20404;-74
2023/10/09 10:57:53;;;;;;;18.55;8.07;;;;;;;;;;5074785;28;20175;-73
2023/10/09 11:03:19;;;;;;;19.95;8.68;;;;;;;;;;5091209;28;20186;-74
2023/10/09 11:05:51;;;;;;;19.02;8.57;;;;;;;;;;5071825;28;20272;-74
2023/10/09 11:08:22;;;;;;;19.60;8.32;;;;;;;;;;5065571;28;20191;-74
2023/10/09 11:10:49;;;;;;;17.70;7.53;;;;;;;;;;5085842;28;20192;-74
2023/10/09 11:13:34;;;;;;;15.48;7.28;;;;;;;;;;5076956;28;20228;-74
2023/10/09 11:16:15;;;;;;;18.38;7.35;;;;;;;;;;5092679;28;20262;-74
2023/10/09 11:18:46;;;;;;;17.73;7.25;;;;;;;;;;5076190;28;20670;-73
2023/10/09 11:23:53;;;;;;;20.85;7.32;;;;;;;;;;5096369;28;20262;-74
2023/10/09 11:26:28;;;;;;;20.75;8.10;;;;;;;;;;5084214;28;20191;-74
2023/10/09 11:32:06;;;;;;;16.92;6.82;;;;;;;;;;5099252;28;20203;-74
2023/10/09 11:34:36;;;;;;;18.58;7.28;;;;;;;;;;5078558;28;20557;-73
2023/10/09 11:37:11;;;;;;;16.25;6.38;;;;;;;;;;5100046;28;20184;-74
2023/10/09 11:39:50;;;;;;;15.45;6.55;;;;;;;;;;5092605;28;20195;-73
2023/10/09 11:45:19;;;;;;;19.52;7.40;;;;;;;;;;5082908;28;20298;-74
2023/10/09 11:47:56;;;;;;;16.75;6.80;;;;;;;;;;5059621;28;20227;-72
2023/10/09 11:50:42;;;;;;;15.15;6.18;;;;;;;;;;5091027;28;20187;-74
2023/10/09 11:53:09;;;;;;;14.75;6.30;;;;;;;;;;5068183;28;20202;-74
2023/10/09 11:55:37;;;;;;;20.33;5.80;;;;;;;;;;5090414;28;20184;-75
2023/10/09 11:58:04;;;;;;;18.50;6.72;;;;;;;;;;5075212;28;20261;-74
2023/10/09 12:00:41;;;;;;;14.75;6.07;;;;;;;;;;5062990;28;20214;-73
2023/10/09 12:03:06;;;;;;;12.15;5.82;;;;;;;;;;5076147;28;20179;-73
2023/10/09 12:05:33;;;;;;;13.70;5.95;;;;;;;;;;5064766;28;20207;-74
2023/10/09 12:08:01;;;;;;;14.13;5.82;;;;;;;;;;5087523;28;20184;-74
2023/10/09 12:10:26;;;;;;;15.65;6.60;;;;;;;;;;5070678;28;20195;-74
2023/10/09 12:12:57;;;;;;;13.25;5.90;;;;;;;;;;5047300;28;20594;-73
2023/10/09 12:15:24;;;;;;;16.90;6.22;;;;;;;;;;5091871;28;20234;-74
2023/10/09 12:17:53;;;;;;;17.58;6.50;;;;;;;;;;5052850;28;20815;-74
2023/10/09 12:20:30;;;;;;;12.68;6.03;;;;;;;;;;5059340;28;20273;-73
2023/10/09 12:22:59;;;;;;;17.27;6.47;;;;;;;;;;5081532;28;20353;-73
2023/10/09 12:25:31;;;;;;;18.98;6.88;;;;;;;;;;5058471;28;20185;-73
2023/10/09 12:27:57;;;;;;;19.52;7.35;;;;;;;;;;5079858;28;20245;-74
2023/10/09 12:30:26;;;;;;;18.52;7.57;;;;;;;;;;5090181;28;20545;-73
2023/10/09 12:32:53;;;;;;;17.77;7.00;;;;;;;;;;5078444;28;20215;-73
2023/10/09 12:35:19;;;;;;;19.17;6.47;;;;;;;;;;5084287;28;20200;-74
2023/10/09 12:37:44;;;;;;;22.65;7.07;;;;;;;;;;5057662;28;20550;-74
2023/10/09 12:40:10;;;;;;;16.48;7.22;;;;;;;;;;5072326;28;20252;-73
2023/10/09 12:42:36;;;;;;;15.95;7.78;;;;;;;;;;5092752;28;20709;-74
2023/10/09 12:45:08;;;;;;;19.20;7.63;;;;;;;;;;5085943;28;20587;-74
2023/10/09 12:47:34;;;;;;;13.27;6.78;;;;;;;;;;5054366;28;20258;-73
2023/10/09 12:49:59;;;;;;;20.30;7.90;;;;;;;;;;5103007;28;20577;-73
2023/10/09 12:52:29;;;;;;;19.25;7.68;;;;;;;;;;5106743;28;20308;-74
2023/10/09 12:54:55;;;;;;;16.25;6.50;;;;;;;;;;5091367;28;20693;-74
2023/10/09 12:57:21;;;;;;;17.83;7.30;;;;;;;;;;5088644;28;20183;-74
2023/10/09 12:59:48;;;;;;;13.63;6.90;;;;;;;;;;5084578;28;20248;-70
2023/10/09 13:02:28;;;;;;;12.30;6.85;;;;;;;;;;5083611;28;20697;-74
2023/10/09 13:04:54;;;;;;;17.90;7.57;;;;;;;;;;5057710;28;20305;-74
2023/10/09 13:07:21;;;;;;;13.73;6.45;;;;;;;;;;5066515;28;20232;-74
2023/10/09 13:10:08;;;;;;;15.10;6.93;;;;;;;;;;5084604;28;20277;-75
2023/10/09 13:12:41;;;;;;;11.85;6.75;;;;;;;;;;5077616;28;20203;-74
2023/10/09 13:15:09;;;;;;;17.15;6.82;;;;;;;;;;5070519;28;20192;-74
2023/10/09 13:17:38;;;;;;;15.05;6.43;;;;;;;;;;5074913;28;20206;-73
2023/10/09 13:20:14;;;;;;;12.88;5.55;;;;;;;;;;5081432;28;20345;-73
2023/10/09 13:22:44;;;;;;;17.50;5.80;;;;;;;;;;5090703;28;20243;-72
2023/10/09 13:25:16;;;;;;;13.82;5.50;;;;;;;;;;5048338;28;20187;-74
2023/10/09 13:27:50;;;;;;;14.70;5.43;;;;;;;;;;5072751;28;20240;-76
2023/10/09 13:30:24;;;;;;;14.95;5.15;;;;;;;;;;5046314;28;20223;-74
2023/10/09 13:32:50;;;;;;;11.18;5.10;;;;;;;;;;5076608;28;20223;-74
2023/10/09 13:35:19;;;;;;;11.32;4.68;;;;;;;;;;5100664;28;20561;-74
2023/10/09 13:37:53;;;;;;;10.98;5.05;;;;;;;;;;5074278;28;20229;-74
2023/10/09 13:40:26;;;;;;;14.32;5.15;;;;;;;;;;5072634;28;20524;-74
2023/10/09 13:42:58;;;;;;;15.43;5.60;;;;;;;;;;5067378;28;20192;-74
2023/10/09 13:45:26;;;;;;;14.27;5.60;;;;;;;;;;5068832;28;20181;-74
2023/10/09 13:47:56;;;;;;;14.13;5.28;;;;;;;;;;5089899;28;20204;-74
2023/10/09 13:50:32;;;;;;;11.07;5.35;;;;;;;;;;5082568;28;20180;-73
2023/10/09 13:52:58;;;;;;;11.45;5.30;;;;;;;;;;5091446;28;20352;-75
2023/10/09 13:55:31;;;;;;;12.27;5.70;;;;;;;;;;5074142;28;20610;-74
2023/10/09 13:57:57;;;;;;;12.88;5.07;;;;;;;;;;5067127;28;20547;-74
2023/10/09 14:00:42;;;;;;;12.40;4.90;;;;;;;;;;5087060;28;20290;-73
2023/10/09 14:03:14;;;;;;;13.13;5.38;;;;;;;;;;5064799;28;20542;-74
2023/10/09 14:05:54;;;;;;;13.73;5.75;;;;;;;;;;5060073;28;20266;-75
2023/10/09 14:08:23;;;;;;;13.75;5.03;;;;;;;;;;5086205;28;20184;-74
2023/10/09 14:10:49;;;;;;;15.65;5.55;;;;;;;;;;5074792;28;20236;-74
2023/10/09 14:13:16;;;;;;;16.60;5.15;;;;;;;;;;5086974;28;20207;-74
2023/10/09 14:15:43;;;;;;;14.30;5.90;;;;;;;;;;5086800;28;20195;-74
2023/10/09 14:18:11;;;;;;;11.25;5.28;;;;;;;;;;5093478;28;20266;-73
2023/10/09 14:20:37;;;;;;;13.95;5.95;;;;;;;;;;5061126;28;20177;-74
2023/10/09 14:23:06;;;;;;;14.88;5.60;;;;;;;;;;5048852;28;20204;-74
2023/10/09 14:25:39;;;;;;;17.45;5.80;;;;;;;;;;5051361;28;20177;-74
2023/10/09 14:28:08;;;;;;;15.68;5.50;;;;;;;;;;5092465;28;20187;-76
2023/10/09 14:30:41;;;;;;;13.27;5.18;;;;;;;;;;5102710;28;20227;-74
2023/10/09 14:33:12;;;;;;;15.40;5.72;;;;;;;;;;5073750;28;20345;-74
2023/10/09 14:35:41;;;;;;;15.02;5.70;;;;;;;;;;5078642;28;20325;-72
2023/10/09 14:38:13;;;;;;;13.00;5.35;;;;;;;;;;5056677;28;20188;-73
2023/10/09 14:40:45;;;;;;;14.63;5.78;;;;;;;;;;5073137;28;20346;-73
2023/10/09 14:43:20;;;;;;;16.95;6.07;;;;;;;;;;5083452;28;20266;-73
2023/10/09 14:45:48;;;;;;;12.00;5.85;;;;;;;;;;5061585;28;20229;-73
2023/10/09 14:48:18;;;;;;;11.20;4.80;;;;;;;;;;5075651;28;20252;-73
2023/10/09 14:50:48;;;;;;;13.52;5.22;;;;;;;;;;5073447;28;20651;-74
2023/10/09 14:53:15;;;;;;;14.75;5.50;;;;;;;;;;5079919;28;20227;-73
2023/10/09 14:55:44;;;;;;;18.00;5.28;;;;;;;;;;5069230;28;20192;-74
2023/10/09 14:58:11;;;;;;;12.27;5.63;;;;;;;;;;5084968;28;20188;-73
2023/10/09 15:00:36;;;;;;;18.25;6.18;;;;;;;;;;5089063;28;20638;-74
2023/10/09 15:03:04;;;;;;;11.48;5.38;;;;;;;;;;5082315;28;20503;-74
2023/10/09 15:05:31;;;;;;;12.52;5.70;;;;;;;;;;5083794;28;20238;-74
2023/10/09 15:07:57;;;;;;;14.10;5.40;;;;;;;;;;5090722;28;20686;-73
2023/10/09 15:10:24;;;;;;;15.82;5.88;;;;;;;;;;5059344;28;20203;-74
2023/10/09 15:12:49;;;;;;;19.92;5.82;;;;;;;;;;5059891;28;20270;-74
2023/10/09 15:15:15;;;;;;;10.02;4.72;;;;;;;;;;5084991;28;20196;-73
2023/10/09 15:17:45;;;;;;;16.67;5.60;;;;;;;;;;5068813;28;20524;-73
2023/10/09 15:20:13;;;;;;;16.15;5.60;;;;;;;;;;5090990;28;20504;-74
2023/10/09 15:22:43;;;;;;;11.80;4.97;;;;;;;;;;5067398;28;20260;-73
2023/10/09 15:25:13;;;;;;;12.82;5.32;;;;;;;;;;5080021;28;20267;-73
2023/10/09 15:27:39;;;;;;;14.02;4.90;;;;;;;;;;5078703;28;20195;-74
2023/10/09 15:30:06;;;;;;;11.98;5.10;;;;;;;;;;5082429;28;20195;-73
2023/10/09 15:32:34;;;;;;;12.18;5.05;;;;;;;;;;5090824;28;20220;-73
2023/10/09 15:35:02;;;;;;;13.25;5.75;;;;;;;;;;5096020;28;20188;-73
2023/10/09 15:37:27;;;;;;;12.90;5.63;;;;;;;;;;5072864;28;20185;-73
2023/10/09 15:39:53;;;;;;;14.50;5.65;;;;;;;;;;5082333;28;20199;-72
2023/10/09 15:42:18;;;;;;;15.30;5.28;;;;;;;;;;5070069;28;20271;-74
2023/10/09 15:44:47;;;;;;;14.38;5.82;;;;;;;;;;5091105;28;20646;-73
2023/10/09 15:47:15;;;;;;;19.23;6.20;;;;;;;;;;5083015;28;20192;-74
2023/10/09 15:49:43;;;;;;;13.85;6.05;;;;;;;;;;5077645;28;20188;-74
2023/10/09 15:52:13;;;;;;;15.48;6.72;;;;;;;;;;5069350;28;20314;-73
2023/10/09 15:54:42;;;;;;;17.17;7.85;;;;;;;;;;5081826;28;20257;-73
2023/10/09 15:57:09;;;;;;;17.20;7.85;;;;;;;;;;5081175;28;20185;-73
2023/10/09 15:59:35;;;;;;;15.90;6.88;;;;;;;;;;5066007;28;20227;-73
2023/10/09 16:02:00;;;;;;;16.88;6.43;;;;;;;;;;5075498;28;20289;-73
2023/10/09 16:04:26;;;;;;;17.23;7.18;;;;;;;;;;5062999;28;20240;-73
2023/10/09 16:06:52;;;;;;;12.48;6.90;;;;;;;;;;5068962;28;20201;-73
2023/10/09 16:09:21;;;;;;;16.02;7.30;;;;;;;;;;5050601;28;20188;-73
2023/10/09 16:11:49;;;;;;;21.55;7.20;;;;;;;;;;5058775;28;20688;-73
2023/10/09 16:14:15;;;;;;;16.70;6.90;;;;;;;;;;5056129;28;20212;-73
2023/10/09 16:16:41;;;;;;;15.40;6.70;;;;;;;;;;5071106;28;20603;-73
2023/10/09 16:19:10;;;;;;;17.23;7.05;;;;;;;;;;5055955;28;20272;-73
2023/10/09 16:21:36;;;;;;;16.52;7.10;;;;;;;;;;5061855;28;20197;-73
2023/10/09 16:24:05;;;;;;;15.45;6.97;;;;;;;;;;5057222;28;20194;-73
2023/10/09 16:26:39;;;;;;;14.50;7.00;;;;;;;;;;5065567;28;20204;-73
2023/10/09 16:29:11;;;;;;;19.77;7.78;;;;;;;;;;5067217;28;20193;-73
2023/10/09 16:31:37;;;;;;;13.98;7.05;;;;;;;;;;5060817;28;20193;-73
2023/10/09 16:34:06;;;;;;;17.63;7.25;;;;;;;;;;5057786;28;20189;-73
2023/10/09 16:36:36;;;;;;;21.30;7.60;;;;;;;;;;5060421;28;20184;-74
2023/10/09 16:39:02;;;;;;;16.85;7.70;;;;;;;;;;5059973;28;20200;-73
2023/10/09 16:41:28;;;;;;;24.15;8.25;;;;;;;;;;5067208;28;20246;-73
2023/10/09 16:43:54;;;;;;;19.63;8.30;;;;;;;;;;5072523;28;20192;-73
2023/10/09 16:46:22;;;;;;;18.40;7.38;;;;;;;;;;5066371;28;20256;-74
2023/10/09 16:48:52;;;;;;;18.75;7.82;;;;;;;;;;5071026;28;20230;-74
2023/10/09 16:51:21;;;;;;;16.23;6.70;;;;;;;;;;5074103;28;20242;-73
2023/10/09 16:53:54;;;;;;;19.95;7.85;;;;;;;;;;5072364;28;20492;-73
2023/10/09 16:56:19;;;;;;;17.67;7.45;;;;;;;;;;5074589;28;20472;-74
2023/10/09 16:58:46;;;;;;;19.63;7.78;;;;;;;;;;5073745;28;20328;-73
2023/10/09 17:01:11;;;;;;;13.65;7.53;;;;;;;;;;5073110;28;20264;-73
2023/10/09 17:03:47;;;;;;;17.00;7.18;;;;;;;;;;5071175;28;20786;-73
2023/10/09 17:06:17;;;;;;;18.52;8.10;;;;;;;;;;5055823;28;20181;-73
2023/10/09 17:08:45;;;;;;;18.30;7.85;;;;;;;;;;5072257;28;20720;-73
2023/10/09 17:11:12;;;;;;;20.00;8.35;;;;;;;;;;5074897;28;20279;-74
2023/10/09 17:13:47;;;;;;;13.23;8.52;;;;;;;;;;5073832;28;20346;-74
2023/10/09 17:16:17;;;;;;;17.75;8.40;;;;;;;;;;5057778;28;20180;-74
2023/10/09 17:18:45;;;;;;;18.60;8.50;;;;;;;;;;5078652;28;20197;-74
2023/10/09 17:21:13;;;;;;;19.23;8.95;;;;;;;;;;5062321;28;20191;-74
2023/10/09 17:23:47;;;;;;;21.67;9.50;;;;;;;;;;5077156;28;20211;-76